Time;durP1;ratioP1;P1;durP2;ratioP2;P2;SDS_P1;SDS_P2;PMS_P1;PMS_P2;Temp;Humidity;BMP_temperature;BMP_pressure;BME280_temperature;BME280_humidity;BME280_pressure;Samples;Min_cycle;Max_cycle;Signal;HPM_P1;HPM_P2
2022/07/17 00:00:12;;;;;;;14.27;2.97;;;16.50;56.70;;;;;;9180237;19;20380;-66
2022/07/17 00:03:19;;;;;;;7.05;2.95;;;16.40;56.70;;;;;;9180995;19;20025;-66
2022/07/17 00:06:26;;;;;;;10.80;3.13;;;16.30;56.70;;;;;;9177213;19;20014;-67
2022/07/17 00:09:31;;;;;;;9.45;3.47;;;16.30;56.80;;;;;;9179673;19;20019;-66
2022/07/17 00:12:38;;;;;;;11.35;3.97;;;16.30;56.90;;;;;;9179395;19;20015;-65
2022/07/17 00:15:43;;;;;;;9.73;2.72;;;16.20;57.00;;;;;;9179485;19;20010;-66
2022/07/17 00:18:48;;;;;;;9.23;3.00;;;16.10;57.00;;;;;;9179738;19;20388;-66
2022/07/17 00:21:54;;;;;;;12.52;3.20;;;16.10;57.10;;;;;;9179032;19;20674;-66
2022/07/17 00:24:59;;;;;;;9.70;2.75;;;16.10;57.20;;;;;;9181153;19;20015;-65
2022/07/17 00:28:07;;;;;;;8.38;2.65;;;16.00;57.20;;;;;;9180874;19;20014;-65
2022/07/17 00:31:12;;;;;;;10.70;2.92;;;16.00;57.50;;;;;;9177993;19;20015;-65
2022/07/17 00:34:17;;;;;;;10.35;2.55;;;15.90;57.40;;;;;;9177835;19;20017;-66
2022/07/17 00:37:25;;;;;;;9.40;2.70;;;15.80;57.40;;;;;;9180705;19;20022;-66
2022/07/17 00:40:30;;;;;;;4.03;1.60;;;15.80;57.60;;;;;;9180134;19;20848;-66
2022/07/17 00:43:38;;;;;;;5.30;2.05;;;15.80;57.70;;;;;;9180424;19;20475;-66
2022/07/17 00:46:44;;;;;;;6.35;1.95;;;15.70;57.80;;;;;;9178894;19;20543;-66
2022/07/17 00:49:50;;;;;;;8.73;2.28;;;15.60;57.80;;;;;;9177137;19;20018;-66
2022/07/17 00:52:55;;;;;;;5.95;2.20;;;15.60;57.90;;;;;;9178556;19;20082;-65
2022/07/17 00:56:02;;;;;;;12.88;2.10;;;15.60;58.10;;;;;;9177654;19;20530;-66
2022/07/17 00:59:09;;;;;;;6.13;2.30;;;15.50;58.00;;;;;;9178614;19;20022;-66
2022/07/17 01:02:16;;;;;;;6.95;2.42;;;15.50;58.20;;;;;;9179791;19;20049;-66
2022/07/17 01:05:23;;;;;;;9.65;2.53;;;15.40;58.20;;;;;;9173089;19;20029;-66
2022/07/17 01:08:29;;;;;;;7.93;2.22;;;15.40;58.30;;;;;;9175664;19;20027;-66
2022/07/17 01:11:35;;;;;;;6.43;2.25;;;15.40;58.30;;;;;;9179184;19;20048;-66
2022/07/17 01:14:44;;;;;;;4.20;2.13;;;15.30;58.40;;;;;;9177860;19;20046;-66
2022/07/17 01:17:49;;;;;;;4.55;2.03;;;15.30;58.40;;;;;;9178887;19;20064;-65
2022/07/17 01:20:54;;;;;;;7.68;2.05;;;15.20;58.40;;;;;;9176965;19;20022;-66
2022/07/17 01:24:02;;;;;;;4.38;1.80;;;15.20;58.40;;;;;;9178988;19;20018;-66
2022/07/17 01:27:07;;;;;;;4.20;1.70;;;15.20;58.60;;;;;;9176460;19;20018;-66
2022/07/17 01:30:13;;;;;;;9.55;2.28;;;15.10;58.50;;;;;;9177676;19;20606;-66
2022/07/17 01:33:18;;;;;;;5.45;1.90;;;15.10;59.20;;;;;;9178115;19;20369;-65
2022/07/17 01:36:25;;;;;;;6.13;2.03;;;15.00;59.20;;;;;;9174954;19;20048;-65
2022/07/17 01:42:52;;;;;;;6.18;2.40;;;15.00;58.90;;;;;;9177312;19;20029;-66
2022/07/17 01:45:57;;;;;;;7.40;2.30;;;14.90;58.90;;;;;;9175385;19;20486;-65
2022/07/17 01:49:03;;;;;;;5.28;2.28;;;14.90;58.90;;;;;;9176527;19;20574;-65
2022/07/17 01:52:08;;;;;;;4.88;1.92;;;14.80;58.90;;;;;;9176157;19;20125;-66
2022/07/17 01:55:17;;;;;;;6.43;2.55;;;14.80;59.00;;;;;;9176485;19;20850;-65
2022/07/17 01:58:22;;;;;;;8.93;3.03;;;14.70;59.20;;;;;;9181262;19;20018;-65
2022/07/17 02:01:27;;;;;;;6.93;2.47;;;14.70;59.10;;;;;;9186778;19;20083;-65
2022/07/17 02:04:34;;;;;;;6.90;2.70;;;14.70;59.20;;;;;;9180592;19;20022;-66
2022/07/17 02:07:39;;;;;;;3.50;2.10;;;14.60;59.20;;;;;;9186381;19;20621;-67
2022/07/17 02:10:47;;;;;;;7.68;2.95;;;14.60;59.30;;;;;;9186110;19;20014;-65
2022/07/17 02:13:52;;;;;;;7.68;2.58;;;14.60;59.50;;;;;;9184007;19;20026;-66
2022/07/17 02:16:57;;;;;;;9.80;2.33;;;14.50;59.40;;;;;;9182958;19;20022;-66
2022/07/17 02:20:03;;;;;;;6.38;2.38;;;14.50;59.50;;;;;;9184386;19;20030;-65
2022/07/17 02:23:08;;;;;;;7.85;2.47;;;14.40;59.50;;;;;;9183879;19;20015;-65
2022/07/17 02:26:16;;;;;;;6.10;2.35;;;14.40;60.30;;;;;;9183758;19;20019;-66
2022/07/17 02:29:21;;;;;;;5.63;2.53;;;14.40;59.80;;;;;;9184232;19;20015;-65
2022/07/17 02:32:26;;;;;;;5.03;2.38;;;14.30;59.80;;;;;;9185420;19;20345;-66
2022/07/17 02:35:31;;;;;;;3.83;1.90;;;14.30;59.80;;;;;;9183377;19;20018;-66
2022/07/17 02:38:36;;;;;;;5.90;2.70;;;14.30;59.90;;;;;;9183575;19;20026;-65
2022/07/17 02:41:44;;;;;;;3.83;1.58;;;14.20;60.60;;;;;;9179503;19;20018;-66
2022/07/17 02:44:49;;;;;;;4.97;1.90;;;14.20;60.10;;;;;;9183911;19;20011;-66
2022/07/17 02:47:54;;;;;;;7.68;2.58;;;14.20;60.10;;;;;;9182794;19;20500;-65
2022/07/17 02:50:59;;;;;;;5.07;2.17;;;14.10;60.10;;;;;;9183473;19;20014;-65
2022/07/17 02:54:04;;;;;;;4.18;1.98;;;14.10;60.10;;;;;;9182683;19;20024;-65
2022/07/17 02:57:12;;;;;;;5.93;1.60;;;14.10;60.20;;;;;;9180219;19;20010;-65
2022/07/17 03:00:20;;;;;;;3.78;1.90;;;14.00;60.20;;;;;;9183182;19;20029;-65
2022/07/17 03:03:25;;;;;;;10.35;2.25;;;14.00;60.30;;;;;;9184909;19;20586;-66
2022/07/17 03:06:31;;;;;;;12.40;2.53;;;13.90;60.30;;;;;;9180844;19;20499;-65
2022/07/17 03:09:36;;;;;;;3.20;1.80;;;13.90;60.40;;;;;;9182978;19;20085;-65
2022/07/17 03:12:44;;;;;;;7.85;2.35;;;13.90;60.50;;;;;;9183722;19;20019;-65
2022/07/17 03:15:49;;;;;;;7.93;2.25;;;13.90;60.60;;;;;;9180491;19;20014;-65
2022/07/17 03:18:54;;;;;;;3.00;1.98;;;13.80;60.60;;;;;;9183596;19;20125;-65
2022/07/17 03:22:00;;;;;;;3.42;1.80;;;13.80;60.60;;;;;;9181833;19;20015;-65
2022/07/17 03:25:06;;;;;;;5.38;2.10;;;13.80;60.70;;;;;;9182556;19;20018;-66
2022/07/17 03:28:13;;;;;;;5.28;2.13;;;13.70;60.70;;;;;;9183473;19;20022;-65
2022/07/17 03:31:18;;;;;;;2.97;1.63;;;13.70;60.80;;;;;;9182636;19;20131;-66
2022/07/17 03:34:24;;;;;;;3.67;2.10;;;13.70;60.80;;;;;;9181196;19;20093;-65
2022/07/17 03:37:29;;;;;;;3.92;1.73;;;13.60;60.70;;;;;;9178704;19;20006;-65
2022/07/17 03:40:34;;;;;;;8.48;2.38;;;13.60;60.80;;;;;;9181200;19;20018;-66
2022/07/17 03:43:42;;;;;;;4.32;2.00;;;13.60;60.90;;;;;;9180823;19;20017;-66
2022/07/17 03:46:47;;;;;;;13.52;3.25;;;13.60;61.00;;;;;;9180532;19;20052;-66
2022/07/17 03:49:52;;;;;;;5.35;2.25;;;13.50;61.00;;;;;;9180201;19;20018;-65
2022/07/17 03:52:57;;;;;;;6.00;2.22;;;13.50;61.00;;;;;;9182374;19;20029;-65
2022/07/17 03:56:02;;;;;;;4.90;2.17;;;13.50;61.10;;;;;;9181203;19;20048;-66
2022/07/17 03:59:10;;;;;;;5.88;2.10;;;13.40;61.10;;;;;;9181653;19;20030;-64
2022/07/17 04:02:15;;;;;;;6.85;2.67;;;13.50;61.30;;;;;;9181070;19;20007;-64
2022/07/17 04:05:20;;;;;;;6.70;2.05;;;13.40;61.30;;;;;;9175432;19;20049;-65
2022/07/17 04:08:25;;;;;;;4.13;2.33;;;13.40;61.40;;;;;;9181851;19;20011;-65
2022/07/17 04:11:30;;;;;;;6.50;2.35;;;13.30;61.40;;;;;;9180695;19;20015;-65
2022/07/17 04:14:38;;;;;;;7.40;2.50;;;13.30;61.50;;;;;;9178728;19;20014;-65
2022/07/17 04:17:43;;;;;;;7.13;2.40;;;13.30;61.60;;;;;;9177014;19;20026;-65
2022/07/17 04:20:48;;;;;;;7.00;2.60;;;13.30;61.70;;;;;;9178706;19;20082;-65
2022/07/17 04:23:53;;;;;;;5.47;2.30;;;13.30;62.40;;;;;;9180887;19;20483;-65
2022/07/17 04:26:58;;;;;;;6.97;2.28;;;13.20;61.70;;;;;;9179939;19;20014;-65
2022/07/17 04:30:07;;;;;;;6.07;2.30;;;13.30;61.90;;;;;;9180664;19;20022;-65
2022/07/17 04:33:12;;;;;;;6.47;2.20;;;13.20;62.00;;;;;;9178318;19;20046;-66
2022/07/17 04:36:18;;;;;;;5.45;2.20;;;13.30;62.10;;;;;;9179491;19;20014;-66
2022/07/17 04:39:23;;;;;;;3.10;2.30;;;13.30;62.10;;;;;;9179091;19;20014;-64
2022/07/17 04:42:28;;;;;;;5.72;2.25;;;13.20;62.10;;;;;;9180448;19;20039;-65
2022/07/17 04:45:36;;;;;;;8.70;2.40;;;13.20;62.20;;;;;;9179472;19;20458;-66
2022/07/17 04:48:41;;;;;;;8.55;2.55;;;13.20;62.30;;;;;;9178494;19;20329;-65
2022/07/17 04:51:46;;;;;;;6.93;2.70;;;13.20;62.30;;;;;;9177929;19;20448;-66
2022/07/17 04:54:51;;;;;;;8.52;2.22;;;13.30;62.50;;;;;;9179708;19;20463;-65
2022/07/17 04:57:57;;;;;;;6.32;3.05;;;13.30;62.60;;;;;;9177677;19;20401;-65
2022/07/17 05:01:04;;;;;;;7.97;2.63;;;13.30;62.60;;;;;;9177373;19;20018;-65
2022/07/17 05:04:09;;;;;;;4.88;2.65;;;13.40;62.90;;;;;;9173796;19;20018;-65
2022/07/17 05:07:15;;;;;;;5.00;2.53;;;13.40;62.90;;;;;;9177995;19;20014;-66
2022/07/17 05:10:20;;;;;;;4.13;2.30;;;13.50;62.90;;;;;;9176851;19;20017;-65
2022/07/17 05:13:31;;;;;;;3.10;2.05;;;13.50;63.10;;;;;;9176940;19;20023;-65
2022/07/17 05:16:39;;;;;;;9.18;2.53;;;13.50;63.10;;;;;;9176776;19;20099;-65
2022/07/17 05:19:45;;;;;;;8.18;2.30;;;13.60;63.20;;;;;;9178980;19;20543;-65
2022/07/17 05:22:50;;;;;;;7.70;2.70;;;13.70;63.30;;;;;;9178464;19;20019;-65
2022/07/17 05:25:55;;;;;;;7.55;2.63;;;13.70;63.30;;;;;;9178267;19;20867;-64
2022/07/17 05:29:00;;;;;;;10.45;2.47;;;13.80;63.30;;;;;;9177496;19;20007;-65
2022/07/17 05:32:08;;;;;;;16.80;2.80;;;13.90;63.40;;;;;;9181979;19;20019;-66
2022/07/17 05:35:13;;;;;;;8.93;2.60;;;13.90;63.60;;;;;;9187418;19;20018;-65
2022/07/17 05:38:18;;;;;;;7.80;2.70;;;14.00;63.60;;;;;;9183155;19;20053;-64
2022/07/17 05:41:23;;;;;;;9.40;3.15;;;14.10;63.60;;;;;;9185621;19;20036;-66
2022/07/17 05:44:28;;;;;;;9.57;3.05;;;14.10;63.70;;;;;;9184766;19;20476;-65
2022/07/17 05:47:36;;;;;;;5.45;2.58;;;14.20;63.70;;;;;;9185180;19;20078;-65
2022/07/17 05:50:41;;;;;;;6.45;3.20;;;14.30;63.90;;;;;;9185845;19;20025;-65
2022/07/17 05:53:46;;;;;;;12.18;3.03;;;14.30;63.80;;;;;;9187203;19;20468;-65
2022/07/17 05:56:52;;;;;;;5.72;2.85;;;14.40;63.90;;;;;;9185825;19;20021;-66
2022/07/17 05:59:57;;;;;;;12.90;3.40;;;14.50;64.00;;;;;;9186485;19;20356;-65
2022/07/17 06:03:05;;;;;;;11.48;3.40;;;14.60;64.10;;;;;;9184794;19;20014;-65
2022/07/17 06:06:10;;;;;;;8.30;3.08;;;14.70;64.20;;;;;;9179767;19;20011;-65
2022/07/17 06:09:15;;;;;;;6.50;2.80;;;14.80;64.10;;;;;;9185842;19;20015;-65
2022/07/17 06:12:20;;;;;;;9.60;3.25;;;14.90;64.20;;;;;;9184350;19;20015;-66
2022/07/17 06:15:26;;;;;;;15.15;2.75;;;15.00;64.10;;;;;;9185609;19;20078;-67
2022/07/17 06:18:34;;;;;;;15.38;2.88;;;15.10;64.20;;;;;;9182046;19;20022;-65
2022/07/17 06:21:39;;;;;;;8.48;2.45;;;15.20;64.30;;;;;;9185871;19;20037;-65
2022/07/17 06:24:44;;;;;;;7.70;2.80;;;15.30;64.20;;;;;;9184394;19;20024;-66
2022/07/17 06:27:49;;;;;;;6.25;2.88;;;15.40;64.30;;;;;;9180663;19;20029;-65
2022/07/17 06:30:54;;;;;;;12.98;3.05;;;15.50;64.50;;;;;;9184023;19;20023;-64
2022/07/17 06:34:02;;;;;;;14.43;3.28;;;15.60;64.50;;;;;;9183406;19;20476;-64
2022/07/17 06:37:07;;;;;;;8.30;2.60;;;15.80;64.70;;;;;;9183993;19;20349;-65
2022/07/17 06:40:12;;;;;;;8.73;2.60;;;15.90;64.60;;;;;;9183154;19;20018;-65
2022/07/17 06:43:17;;;;;;;12.23;2.80;;;16.10;64.60;;;;;;9181333;19;20025;-66
2022/07/17 06:46:22;;;;;;;7.72;2.40;;;16.30;64.60;;;;;;9182860;19;20135;-65
2022/07/17 06:49:30;;;;;;;12.05;2.60;;;16.50;64.60;;;;;;9184808;19;20010;-65
2022/07/17 06:52:35;;;;;;;7.32;1.90;;;16.70;64.60;;;;;;9182764;19;20011;-66
2022/07/17 06:55:40;;;;;;;14.55;2.30;;;16.90;64.50;;;;;;9182459;19;20041;-66
2022/07/17 06:58:45;;;;;;;9.32;2.13;;;17.20;64.40;;;;;;9181384;19;20479;-66
2022/07/17 07:01:50;;;;;;;9.30;1.90;;;17.40;64.10;;;;;;9184646;19;20029;-65
2022/07/17 07:04:58;;;;;;;10.93;1.75;;;17.60;64.00;;;;;;9177069;19;20030;-67
2022/07/17 07:08:03;;;;;;;11.30;2.03;;;17.80;63.80;;;;;;9185191;19;20023;-66
2022/07/17 07:11:08;;;;;;;6.75;1.90;;;18.10;63.70;;;;;;9183966;19;20029;-66
2022/07/17 07:14:14;;;;;;;12.98;2.78;;;18.30;63.40;;;;;;9178129;19;20022;-66
2022/07/17 07:17:19;;;;;;;6.07;1.40;;;18.60;63.20;;;;;;9177518;19;20011;-66
2022/07/17 07:20:26;;;;;;;10.57;1.88;;;18.80;62.80;;;;;;9176552;19;20015;-66
2022/07/17 07:23:32;;;;;;;4.68;1.50;;;19.10;62.50;;;;;;9179756;19;20023;-66
2022/07/17 07:26:37;;;;;;;7.15;1.40;;;19.30;62.30;;;;;;9180329;19;20368;-66
2022/07/17 07:29:42;;;;;;;6.47;1.42;;;19.50;62.00;;;;;;9178430;19;20025;-66
2022/07/17 07:32:47;;;;;;;9.55;2.15;;;19.70;61.80;;;;;;9178138;19;20010;-66
2022/07/17 07:35:55;;;;;;;6.15;1.67;;;19.90;61.50;;;;;;9175025;19;20023;-65
2022/07/17 07:39:00;;;;;;;6.22;1.30;;;20.10;61.30;;;;;;9176215;19;20011;-65
2022/07/17 07:42:08;;;;;;;11.88;1.85;;;20.30;61.00;;;;;;9176362;19;20345;-66
2022/07/17 07:45:13;;;;;;;6.25;1.83;;;20.50;60.70;;;;;;9177576;19;20017;-67
2022/07/17 07:48:19;;;;;;;7.10;1.63;;;20.70;60.60;;;;;;9177007;19;20018;-67
2022/07/17 07:51:26;;;;;;;7.75;2.00;;;20.90;60.30;;;;;;9174573;19;20031;-67
2022/07/17 07:54:52;;;;;;;6.63;1.30;;;21.10;60.00;;;;;;9173340;19;20022;-65
2022/07/17 07:58:05;;;;;;;9.20;1.70;;;21.30;59.80;;;;;;9175028;19;20022;-67
2022/07/17 08:01:10;;;;;;;6.30;1.40;;;21.50;59.40;;;;;;9174945;19;20133;-67
2022/07/17 08:04:15;;;;;;;7.00;1.27;;;21.70;59.30;;;;;;9169336;19;20026;-67
2022/07/17 08:07:23;;;;;;;6.18;1.10;;;21.90;59.00;;;;;;9176699;19;20052;-65
2022/07/17 08:10:28;;;;;;;6.38;1.27;;;22.10;58.70;;;;;;9174826;19;20038;-67
2022/07/17 08:13:33;;;;;;;6.10;1.20;;;22.30;58.50;;;;;;9174296;19;20030;-65
2022/07/17 08:16:38;;;;;;;7.10;1.27;;;22.50;58.10;;;;;;9178164;19;20014;-66
2022/07/17 08:19:44;;;;;;;7.38;1.50;;;22.70;57.80;;;;;;9173085;19;20534;-64
2022/07/17 08:22:52;;;;;;;8.90;1.60;;;22.90;57.60;;;;;;9175994;19;20030;-66
2022/07/17 08:26:12;;;;;;;11.25;1.90;;;23.10;57.30;;;;;;9178054;19;20010;-65
2022/07/17 08:29:18;;;;;;;5.22;1.40;;;23.30;57.20;;;;;;9175040;19;20018;-65
2022/07/17 08:32:43;;;;;;;7.47;1.40;;;23.40;56.90;;;;;;9176008;19;20011;-65
2022/07/17 08:35:48;;;;;;;7.97;1.10;;;23.50;56.50;;;;;;9173228;19;20019;-66
2022/07/17 08:38:56;;;;;;;8.40;1.20;;;23.70;56.30;;;;;;9176769;19;20034;-65
2022/07/17 08:42:04;;;;;;;4.85;1.27;;;23.80;55.90;;;;;;9175611;19;20018;-66
2022/07/17 08:45:12;;;;;;;5.90;1.00;;;23.90;55.80;;;;;;9174168;19;20360;-66
2022/07/17 08:48:19;;;;;;;9.93;1.10;;;24.10;55.60;;;;;;9173791;19;20018;-66
2022/07/17 08:51:26;;;;;;;8.95;1.58;;;24.20;55.30;;;;;;9176583;19;20109;-65
2022/07/17 08:54:35;;;;;;;6.32;1.42;;;24.30;55.00;;;;;;9176506;19;20051;-65
2022/07/17 08:57:41;;;;;;;4.60;1.38;;;24.50;54.80;;;;;;9172731;19;20018;-66
2022/07/17 09:00:53;;;;;;;4.10;0.98;;;24.50;54.60;;;;;;9170632;19;20022;-68
2022/07/17 09:04:05;;;;;;;6.72;1.05;;;24.70;54.60;;;;;;9171136;19;20124;-67
2022/07/17 09:07:14;;;;;;;8.82;1.50;;;24.80;54.40;;;;;;9172628;19;20021;-66
2022/07/17 09:10:32;;;;;;;5.20;1.48;;;25.00;54.00;;;;;;9177018;19;20011;-66
2022/07/17 09:13:51;;;;;;;3.58;1.13;;;25.10;53.50;;;;;;9171585;19;20510;-67
2022/07/17 09:16:59;;;;;;;2.70;0.98;;;25.20;53.40;;;;;;9170263;19;20030;-67
2022/07/17 09:20:05;;;;;;;3.92;1.23;;;25.30;53.30;;;;;;9175603;19;20018;-67
2022/07/17 09:23:10;;;;;;;4.10;1.05;;;25.40;53.20;;;;;;9172941;19;20010;-66
2022/07/17 09:26:18;;;;;;;1.88;0.60;;;25.50;52.90;;;;;;9174651;19;20463;-68
2022/07/17 09:29:23;;;;;;;3.92;0.98;;;25.60;52.60;;;;;;9177436;19;20346;-68
2022/07/17 09:32:31;;;;;;;4.15;1.40;;;25.60;52.50;;;;;;9174817;19;20353;-67
2022/07/17 09:35:36;;;;;;;6.38;1.00;;;25.70;52.30;;;;;;9174619;19;20110;-67
2022/07/17 09:38:44;;;;;;;6.18;0.90;;;25.70;52.10;;;;;;9172933;19;20018;-67
2022/07/17 09:41:52;;;;;;;4.75;1.15;;;25.80;52.00;;;;;;9173446;19;20349;-66
2022/07/17 09:44:59;;;;;;;8.90;1.63;;;25.90;51.90;;;;;;9166545;19;20021;-66
2022/07/17 09:48:06;;;;;;;5.95;1.27;;;25.90;51.70;;;;;;9174552;19;20018;-68
2022/07/17 09:51:12;;;;;;;5.13;1.00;;;26.00;51.50;;;;;;9171133;19;20134;-68
2022/07/17 09:54:23;;;;;;;7.05;1.77;;;26.10;51.40;;;;;;9168659;19;20480;-67
2022/07/17 09:57:32;;;;;;;4.13;0.90;;;26.20;51.30;;;;;;9172084;19;20452;-69
2022/07/17 10:00:38;;;;;;;7.72;1.40;;;26.30;51.00;;;;;;9166993;19;20021;-68
2022/07/17 10:03:44;;;;;;;8.65;1.23;;;26.40;51.00;;;;;;9169756;19;20025;-68
2022/07/17 10:06:49;;;;;;;8.77;1.50;;;26.50;50.80;;;;;;9173086;19;20025;-68
2022/07/17 10:09:54;;;;;;;8.07;1.73;;;26.60;50.60;;;;;;9174137;19;20026;-68
2022/07/17 10:13:05;;;;;;;6.38;1.25;;;26.70;50.60;;;;;;9171054;19;20342;-66
2022/07/17 10:16:11;;;;;;;6.70;0.88;;;26.80;50.20;;;;;;9173874;19;20018;-68
2022/07/17 10:19:21;;;;;;;4.32;0.88;;;26.80;50.20;;;;;;9177259;19;20021;-69
2022/07/17 10:22:27;;;;;;;7.32;1.17;;;26.90;50.00;;;;;;9180267;19;20025;-68
2022/07/17 10:25:32;;;;;;;2.13;0.75;;;27.00;50.00;;;;;;9176213;19;20022;-69
2022/07/17 10:28:46;;;;;;;8.45;0.98;;;27.10;49.80;;;;;;9181131;19;20023;-68
2022/07/17 10:31:54;;;;;;;5.50;1.10;;;27.10;49.30;;;;;;9179033;19;20019;-71
2022/07/17 10:35:03;;;;;;;6.15;1.52;;;27.20;49.40;;;;;;9176822;19;21093;-70
2022/07/17 10:38:14;;;;;;;5.07;1.20;;;27.20;49.20;;;;;;9176042;19;20022;-68
2022/07/17 10:41:22;;;;;;;6.85;0.90;;;27.30;49.00;;;;;;9173162;19;20026;-67
2022/07/17 10:44:31;;;;;;;2.92;1.02;;;27.30;48.80;;;;;;9177012;19;20022;-68
2022/07/17 10:47:50;;;;;;;8.80;1.10;;;27.40;48.60;;;;;;9178314;19;20021;-67
2022/07/17 10:50:58;;;;;;;4.05;1.63;;;27.40;48.30;;;;;;9177007;19;20020;-68
2022/07/17 10:54:03;;;;;;;3.88;1.20;;;27.60;48.60;;;;;;9179640;19;20092;-68
2022/07/17 10:57:09;;;;;;;3.78;0.90;;;27.60;48.50;;;;;;9175686;19;20018;-67
2022/07/17 11:00:20;;;;;;;4.65;1.27;;;27.70;48.50;;;;;;9166999;19;20020;-65
2022/07/17 11:03:25;;;;;;;2.80;0.70;;;27.80;48.10;;;;;;9179152;19;20022;-70
2022/07/17 11:06:32;;;;;;;5.35;1.40;;;27.90;48.10;;;;;;9180348;19;20022;-67
2022/07/17 11:09:37;;;;;;;7.25;0.90;;;27.90;47.80;;;;;;9179957;19;20018;-67
2022/07/17 11:12:42;;;;;;;4.70;1.00;;;27.90;47.80;;;;;;9185010;19;20026;-66
2022/07/17 11:15:51;;;;;;;4.53;1.42;;;28.00;47.70;;;;;;9183977;19;20015;-69
2022/07/17 11:18:58;;;;;;;8.63;1.02;;;28.10;47.50;;;;;;9178650;19;20106;-65
2022/07/17 11:22:07;;;;;;;5.20;1.52;;;28.10;47.40;;;;;;9176692;19;20077;-68
2022/07/17 11:25:15;;;;;;;3.25;1.15;;;28.20;47.30;;;;;;9183750;19;20018;-69
2022/07/17 11:28:39;;;;;;;3.15;1.15;;;28.40;47.10;;;;;;9178440;19;20011;-67
2022/07/17 11:31:48;;;;;;;5.45;1.33;;;28.40;46.60;;;;;;9181947;19;20019;-66
2022/07/17 11:34:53;;;;;;;4.53;1.25;;;28.50;46.70;;;;;;9175095;19;20508;-66
2022/07/17 11:37:58;;;;;;;7.72;0.88;;;28.50;46.40;;;;;;9175995;19;20010;-66
2022/07/17 11:41:05;;;;;;;5.82;1.13;;;28.50;47.00;;;;;;9172307;19;20032;-67
2022/07/17 11:44:12;;;;;;;5.85;1.00;;;28.50;46.20;;;;;;9175534;19;20029;-67
2022/07/17 11:47:26;;;;;;;2.72;0.93;;;28.50;46.00;;;;;;9174194;19;20479;-67
2022/07/17 11:50:34;;;;;;;3.33;1.00;;;28.50;45.60;;;;;;9170170;19;20014;-67
2022/07/17 11:53:42;;;;;;;3.08;1.00;;;28.50;45.80;;;;;;9171208;19;20526;-67
2022/07/17 11:57:01;;;;;;;5.03;0.93;;;28.50;45.60;;;;;;9173558;19;20360;-67
2022/07/17 12:00:15;;;;;;;5.82;0.90;;;28.50;45.10;;;;;;9167416;19;20022;-66
2022/07/17 12:03:28;;;;;;;3.50;0.80;;;28.50;45.00;;;;;;9170316;19;21876;-67
2022/07/17 12:06:35;;;;;;;3.33;0.80;;;28.60;44.90;;;;;;9170667;19;20505;-67
2022/07/17 12:09:40;;;;;;;5.35;1.15;;;28.60;45.00;;;;;;9170084;19;20010;-69
2022/07/17 12:12:57;;;;;;;2.67;0.60;;;28.70;44.80;;;;;;9171523;19;20014;-67
2022/07/17 12:16:03;;;;;;;2.13;0.70;;;28.70;44.00;;;;;;9172354;19;20054;-67
2022/07/17 12:19:15;;;;;;;2.42;0.88;;;28.70;44.30;;;;;;9171921;19;20010;-67
2022/07/17 12:22:23;;;;;;;2.40;0.75;;;28.70;43.90;;;;;;9166372;19;20348;-66
2022/07/17 12:25:30;;;;;;;4.57;0.95;;;28.70;44.00;;;;;;9169517;19;20030;-66
2022/07/17 12:28:35;;;;;;;3.10;0.98;;;28.80;43.80;;;;;;9169330;19;20018;-67
2022/07/17 12:31:40;;;;;;;2.42;0.75;;;28.80;43.80;;;;;;9171090;19;20364;-68
2022/07/17 12:34:49;;;;;;;3.63;0.80;;;28.80;43.60;;;;;;9172159;19;20015;-67
2022/07/17 12:37:54;;;;;;;6.63;0.93;;;28.90;43.50;;;;;;9169980;19;20018;-67
2022/07/17 12:40:59;;;;;;;2.17;0.80;;;28.90;43.50;;;;;;9168026;19;20281;-68
2022/07/17 12:44:06;;;;;;;3.22;0.85;;;28.90;43.50;;;;;;9170794;19;20031;-66
2022/07/17 12:47:12;;;;;;;6.43;0.93;;;28.90;43.50;;;;;;9173484;19;20368;-67
2022/07/17 12:50:20;;;;;;;4.68;0.95;;;29.00;43.50;;;;;;9173235;19;20026;-68
2022/07/17 12:53:25;;;;;;;2.80;1.00;;;29.00;43.30;;;;;;9171406;19;20053;-66
2022/07/17 12:56:30;;;;;;;2.83;1.13;;;29.10;43.40;;;;;;9172243;19;20064;-67
2022/07/17 12:59:35;;;;;;;2.85;0.95;;;29.10;43.30;;;;;;9169259;19;20618;-68
2022/07/17 13:02:40;;;;;;;3.13;0.80;;;29.10;43.20;;;;;;9168787;19;20030;-68
2022/07/17 13:06:11;;;;;;;5.80;0.80;;;29.20;43.30;;;;;;9165159;19;20042;-68
2022/07/17 13:09:16;;;;;;;3.85;1.00;;;29.10;43.00;;;;;;9171537;19;20021;-67
2022/07/17 13:12:26;;;;;;;5.88;0.88;;;29.10;43.10;;;;;;9172076;19;20053;-66
2022/07/17 13:15:31;;;;;;;2.50;0.98;;;29.20;43.00;;;;;;9170929;19;20014;-68
2022/07/17 13:18:39;;;;;;;7.15;1.05;;;29.20;43.10;;;;;;9170020;19;20061;-68
2022/07/17 13:21:46;;;;;;;3.33;0.90;;;29.20;43.20;;;;;;9165242;19;20495;-69
2022/07/17 13:24:51;;;;;;;4.03;0.98;;;29.30;43.10;;;;;;9169695;19;20033;-66
2022/07/17 13:27:56;;;;;;;3.45;1.10;;;29.30;43.10;;;;;;9176168;19;20026;-68
2022/07/17 13:31:01;;;;;;;4.07;0.80;;;29.30;43.20;;;;;;9179088;19;20356;-66
2022/07/17 13:34:07;;;;;;;5.95;1.13;;;29.30;43.10;;;;;;9176924;19;20022;-66
2022/07/17 13:37:15;;;;;;;3.20;1.10;;;29.40;43.10;;;;;;9179133;19;20014;-67
2022/07/17 13:40:23;;;;;;;6.50;1.17;;;29.30;42.90;;;;;;9176176;19;20015;-66
2022/07/17 13:43:28;;;;;;;5.18;1.25;;;29.30;42.90;;;;;;9177099;19;20015;-67
2022/07/17 13:46:34;;;;;;;4.30;1.40;;;29.40;42.90;;;;;;9176227;19;20018;-67
2022/07/17 13:49:43;;;;;;;2.83;1.27;;;29.40;42.80;;;;;;9176914;19;20014;-68
2022/07/17 13:52:51;;;;;;;7.10;1.35;;;29.30;42.70;;;;;;9180856;19;20360;-67
2022/07/17 13:56:01;;;;;;;6.93;1.42;;;29.40;42.60;;;;;;9184067;19;20019;-68
2022/07/17 13:59:06;;;;;;;4.93;1.52;;;29.40;42.60;;;;;;9187287;19;20348;-66
2022/07/17 14:02:11;;;;;;;2.75;1.30;;;29.40;42.50;;;;;;9185234;19;20029;-66
2022/07/17 14:05:16;;;;;;;2.63;1.30;;;29.40;42.50;;;;;;9180397;19;20056;-66
2022/07/17 14:08:24;;;;;;;5.97;1.63;;;29.40;42.40;;;;;;9187744;19;20010;-67
2022/07/17 14:11:29;;;;;;;6.28;1.70;;;29.40;42.20;;;;;;9185717;19;20022;-68
2022/07/17 14:14:34;;;;;;;4.07;1.88;;;29.40;42.10;;;;;;9183664;19;20090;-67
2022/07/17 14:17:42;;;;;;;4.72;1.50;;;29.40;42.10;;;;;;9186697;19;20019;-67
2022/07/17 14:20:48;;;;;;;4.15;1.30;;;29.40;42.00;;;;;;9186963;19;20010;-68
2022/07/17 14:23:58;;;;;;;3.88;1.70;;;29.40;42.10;;;;;;9184627;19;20030;-67
2022/07/17 14:27:05;;;;;;;4.75;1.70;;;29.40;42.00;;;;;;9186998;19;20025;-67
2022/07/17 14:30:12;;;;;;;8.32;1.60;;;29.40;42.00;;;;;;9184985;19;20506;-67
2022/07/17 14:33:17;;;;;;;3.38;1.55;;;29.30;41.90;;;;;;9185016;19;20014;-67
2022/07/17 14:36:22;;;;;;;2.85;1.50;;;29.30;42.00;;;;;;9183953;19;20034;-67
2022/07/17 14:39:29;;;;;;;3.53;1.58;;;29.40;42.10;;;;;;9184829;19;20022;-68
2022/07/17 14:42:36;;;;;;;4.82;1.52;;;29.30;42.00;;;;;;9183196;19;20019;-68
2022/07/17 14:45:41;;;;;;;4.70;1.45;;;29.30;42.10;;;;;;9185545;19;20018;-66
2022/07/17 14:48:46;;;;;;;6.05;1.40;;;29.30;42.10;;;;;;9185994;19;20017;-67
2022/07/17 14:51:51;;;;;;;4.55;1.25;;;29.30;42.10;;;;;;9183119;19;20015;-68
2022/07/17 14:54:59;;;;;;;3.80;1.40;;;29.30;42.10;;;;;;9185458;19;20014;-68
2022/07/17 14:58:04;;;;;;;3.88;1.42;;;29.30;42.00;;;;;;9183526;19;20022;-67
2022/07/17 15:01:10;;;;;;;5.50;1.70;;;29.30;42.20;;;;;;9184801;19;20039;-66
2022/07/17 15:04:18;;;;;;;3.28;1.92;;;29.30;42.00;;;;;;9176915;19;20014;-66
2022/07/17 15:07:23;;;;;;;4.55;2.40;;;29.30;42.00;;;;;;9185344;19;20017;-66
2022/07/17 15:10:33;;;;;;;6.22;2.10;;;29.20;41.90;;;;;;9183160;19;20041;-66
2022/07/17 15:13:37;;;;;;;7.85;1.90;;;29.20;41.70;;;;;;9185158;19;20492;-67
2022/07/17 15:16:43;;;;;;;3.67;1.70;;;29.10;41.70;;;;;;9183714;19;20093;-66
2022/07/17 15:19:48;;;;;;;3.05;1.60;;;29.00;41.70;;;;;;9184609;19;20030;-66
2022/07/17 15:22:53;;;;;;;6.43;1.90;;;29.00;41.90;;;;;;9182624;19;20018;-66
2022/07/17 15:26:01;;;;;;;3.80;1.65;;;28.90;41.80;;;;;;9184713;19;20020;-67
2022/07/17 15:29:06;;;;;;;4.97;2.03;;;28.90;41.80;;;;;;9184603;19;20372;-67
2022/07/17 15:32:11;;;;;;;4.40;1.80;;;28.80;41.90;;;;;;9182296;19;20015;-67
2022/07/17 15:35:17;;;;;;;5.85;1.63;;;28.80;41.90;;;;;;9183840;19;20082;-66
2022/07/17 15:38:24;;;;;;;6.15;2.15;;;28.70;41.80;;;;;;9181375;19;20033;-66
2022/07/17 15:41:32;;;;;;;4.32;1.70;;;28.70;41.70;;;;;;9182797;19;20018;-68
2022/07/17 15:44:38;;;;;;;5.88;2.25;;;28.60;41.70;;;;;;9182552;19;20020;-68
2022/07/17 15:47:43;;;;;;;5.32;1.98;;;28.60;41.70;;;;;;9181421;19;20022;-67
2022/07/17 15:50:50;;;;;;;6.72;3.17;;;28.60;41.80;;;;;;9183051;19;20022;-67
2022/07/17 15:53:55;;;;;;;8.68;3.15;;;28.50;41.80;;;;;;9182010;19;20018;-67
2022/07/17 15:57:03;;;;;;;4.53;2.55;;;28.50;41.70;;;;;;9182574;19;20023;-67
2022/07/17 16:00:10;;;;;;;6.40;2.25;;;28.40;41.60;;;;;;9181224;19;20010;-66
2022/07/17 16:03:18;;;;;;;6.43;2.30;;;28.40;41.80;;;;;;9181159;19;20022;-68
2022/07/17 16:06:23;;;;;;;6.63;2.38;;;28.30;41.70;;;;;;9175997;19;20033;-66
2022/07/17 16:09:28;;;;;;;5.60;2.20;;;28.30;41.60;;;;;;9182037;19;20078;-67
2022/07/17 16:12:38;;;;;;;3.70;2.08;;;28.30;41.60;;;;;;9181357;19;20011;-68